Flight Track Log - Related Links

Times and Time Zones

All times are in EDT time to prevent confusion due to time zone crossing. See the SWA234 flight status page for this flight to view local times or setup timezone preferences in your user account.

Time Position Orientation Groundspeed Altitude Reporting Facility
EDT Latitude Longitude Course Direction KTS MPH feet Rate Location/Type
Thu 05:35:29 PM 33.6500 -84.3833 59° Northeast 165 190 2,700  Level Atlanta TRACON
Thu 05:36:35 PM 33.6833 -84.3167 59° Northeast 243 280 4,400 2,150 Climbing Atlanta TRACON
Thu 05:37:29 PM 33.7000 -84.2333 76° East 281 323 7,000 2,842 Climbing Atlanta TRACON
Thu 05:38:29 PM 33.7667 -84.1667 40° Northeast 306 352 9,800 1,429 Climbing Atlanta TRACON
Thu 05:39:35 PM 33.8500 -84.1333 18° North 304 350 10,000 143 Climbing Atlanta TRACON
Thu 05:40:35 PM 33.9333 -84.1500 351° North 297 342 10,100 1,522 Climbing Atlanta TRACON
Thu 05:41:49 PM 34.0217 -84.1992 335° Northwest 321 369 13,400 1,925 Climbing Atlanta Center
Thu 05:42:49 PM 34.0131 -84.2994 264° West 281 323 14,400 1,550 Climbing Atlanta Center
Thu 05:43:49 PM 33.9772 -84.4169 250° West 310 357 16,500 2,150 Climbing Atlanta Center
Thu 05:44:49 PM 33.9478 -84.5397 254° West 349 402 18,700 2,200 Climbing Atlanta Center
Thu 05:45:49 PM 33.9136 -84.6697 252° West 382 440 20,900 2,000 Climbing Atlanta Center
Thu 05:46:49 PM 33.8797 -84.7944 252° West 394 453 22,700 1,050 Climbing Atlanta Center
Thu 05:47:49 PM 33.8475 -84.9167 252° West 411 473 23,000 942 Climbing Atlanta Center
Thu 05:48:50 PM 33.8111 -85.0489 252° West 417 480 24,600 1,650 Climbing Atlanta Center
Thu 05:49:49 PM 33.7764 -85.1858 253° West 423 487 26,300 1,575 Climbing Atlanta Center
Thu 05:51:49 PM 33.8089 -85.4739 278° West 436 502 29,300 1,600 Climbing Atlanta Center
Thu 05:52:49 PM 33.8342 -85.6169 282° West 441 507 31,100 1,350 Climbing Atlanta Center
Thu 05:53:49 PM 33.8722 -85.7528 289° West 435 501 32,000 450 Climbing Atlanta Center
Thu 05:54:49 PM 33.9158 -85.8936 290° West 424 488 32,000  Level Atlanta Center
Thu 05:55:49 PM 33.9578 -86.0247 291° West 424 488 32,000  Level Atlanta Center
Thu 05:56:49 PM 33.9972 -86.1586 290° West 424 488 32,000  Level Atlanta Center
Thu 05:57:49 PM 34.0347 -86.2897 289° West 424 488 32,000  Level Atlanta Center
Thu 05:58:49 PM 34.0717 -86.4236 288° West 424 488 32,000  Level Atlanta Center
Thu 05:59:49 PM 34.1108 -86.5553 290° West 424 488 32,000  Level Atlanta Center
Thu 06:00:23 PM 34.1303 -86.6328 287° West 418 481 32,000  Level Memphis Center
Thu 06:01:26 PM 34.1683 -86.7639 289° West 418 481 32,000  Level Memphis Center
Thu 06:02:28 PM 34.2061 -86.8986 289° West 419 482 32,000  Level Memphis Center
Thu 06:03:30 PM 34.2425 -87.0336 288° West 420 483 32,000  Level Memphis Center
Thu 06:04:32 PM 34.2794 -87.1669 289° West 420 483 32,000  Level Memphis Center
Thu 06:05:34 PM 34.3158 -87.3000 288° West 420 483 32,000  Level Memphis Center
Thu 06:06:36 PM 34.3589 -87.4600 288° West 420 483 32,000 484 Level Memphis Center
Thu 06:07:38 PM 34.3961 -87.5944 289° West 419 482 33,000 1,258 Climbing Memphis Center
Thu 06:08:40 PM 34.4333 -87.7303 288° West 424 488 34,600 1,452 Climbing Memphis Center
Thu 06:09:42 PM 34.4711 -87.8706 288° West 405 466 36,000 677 Climbing Memphis Center
Thu 06:10:44 PM 34.5050 -87.9981 288° West 403 464 36,000  Level Memphis Center
Thu 06:11:46 PM 34.5394 -88.1269 288° West 403 464 36,000  Level Memphis Center
Thu 06:12:48 PM 34.5733 -88.2558 288° West 403 464 36,000  Level Memphis Center
Thu 06:13:51 PM 34.6072 -88.3850 288° West 403 464 36,000  Level Memphis Center
Thu 06:14:53 PM 34.6442 -88.5258 288° West 402 463 36,000  Level Memphis Center
Thu 06:15:55 PM 34.6781 -88.6544 288° West 402 463 36,000  Level Memphis Center
Thu 06:16:57 PM 34.7108 -88.7825 287° West 402 463 36,000  Level Memphis Center
Thu 06:17:59 PM 34.7508 -88.9356 288° West 400 460 36,000  Level Memphis Center
Thu 06:19:01 PM 34.7831 -89.0631 287° West 399 459 36,000  Level Memphis Center
Thu 06:20:03 PM 34.8153 -89.1911 287° West 398 458 36,000  Level Memphis Center
Thu 06:21:06 PM 34.8622 -89.3078 296° West 396 456 36,000  Level Memphis Center
Thu 06:22:08 PM 34.9347 -89.4106 311° West 403 464 36,000  Level Memphis Center
Thu 06:23:10 PM 35.0211 -89.5331 311° West 402 463 36,000  Level Memphis Center
Thu 06:24:12 PM 35.0925 -89.6356 310° West 402 463 36,000  Level Memphis Center
Thu 06:25:14 PM 35.1336 -89.7564 293° West 400 460 36,000  Level Memphis Center
Thu 06:26:16 PM 35.1639 -89.8850 286° West 400 460 36,000  Level Memphis Center
Thu 06:27:18 PM 35.1992 -90.0392 286° West 399 459 36,000  Level Memphis Center
Thu 06:28:21 PM 35.2283 -90.1692 285° West 399 459 36,000  Level Memphis Center
Thu 06:29:23 PM 35.2675 -90.2942 291° West 399 459 36,000  Level Memphis Center
Thu 06:30:25 PM 35.3211 -90.4131 299° West 401 461 36,000  Level Memphis Center
Thu 06:31:27 PM 35.3728 -90.5344 298° West 401 461 36,000  Level Memphis Center
Thu 06:32:29 PM 35.4239 -90.6567 297° West 401 461 36,000  Level Memphis Center
Thu 06:33:31 PM 35.4867 -90.8014 298° West 401 461 36,000  Level Memphis Center
Thu 06:34:33 PM 35.5400 -90.9208 299° West 401 461 36,000  Level Memphis Center
Thu 06:35:35 PM 35.6108 -91.0267 309° West 402 463 36,000  Level Memphis Center
Thu 06:36:38 PM 35.6550 -91.1483 294° West 399 459 36,000  Level Memphis Center
Thu 06:37:39 PM 35.6817 -91.2783 284° West 398 458 36,000  Level Memphis Center
Thu 06:38:41 PM 35.7106 -91.4178 284° West 395 455 36,000  Level Memphis Center
Thu 06:39:44 PM 35.7369 -91.5478 284° West 395 455 36,000  Level Memphis Center
Thu 06:40:46 PM 35.7694 -91.7050 284° West 397 457 36,000  Level Memphis Center
Thu 06:41:48 PM 35.7947 -91.8375 283° West 397 457 36,000  Level Memphis Center
Thu 06:42:50 PM 35.8211 -91.9697 284° West 397 457 36,000  Level Memphis Center
Thu 06:43:52 PM 35.8472 -92.1019 284° West 397 457 36,000  Level Memphis Center
Thu 06:44:54 PM 35.8742 -92.2358 284° West 399 459 36,000  Level Memphis Center
Thu 06:45:56 PM 35.8992 -92.3678 283° West 399 459 36,000  Level Memphis Center
Thu 06:46:59 PM 35.9297 -92.5247 284° West 397 457 36,000  Level Memphis Center
Thu 06:48:01 PM 35.9564 -92.6569 284° West 397 457 36,000  Level Memphis Center
Thu 06:49:03 PM 35.9817 -92.7894 283° West 397 457 36,000  Level Memphis Center
Thu 06:50:05 PM 36.0072 -92.9219 283° West 397 457 36,000  Level Memphis Center
Thu 06:51:07 PM 36.0311 -93.0539 283° West 397 457 36,000  Level Memphis Center
Thu 06:52:09 PM 36.0608 -93.2122 283° West 397 457 36,000  Level Memphis Center
Thu 06:53:11 PM 36.0856 -93.3439 283° West 397 457 36,000  Level Memphis Center
Thu 06:54:13 PM 36.1100 -93.4761 283° West 397 457 36,000  Level Memphis Center
Thu 06:55:15 PM 36.1342 -93.6089 283° West 397 457 36,000  Level Memphis Center
Thu 06:56:17 PM 36.1594 -93.7411 283° West 397 457 36,000  Level Memphis Center
Thu 06:57:19 PM 36.1844 -93.8853 282° West 396 456 36,000  Level Memphis Center
Thu 06:58:21 PM 36.2089 -94.0178 283° West 396 456 36,000  Level Memphis Center
Thu 06:59:23 PM 36.2317 -94.1514 282° West 396 456 36,000  Level Memphis Center
Thu 07:00:26 PM 36.2603 -94.3106 283° West 396 456 36,000  Level Memphis Center
Thu 07:01:28 PM 36.2839 -94.4422 283° West 394 453 36,000  Level Memphis Center
Thu 07:02:30 PM 36.3075 -94.5744 283° West 394 453 36,000  Level Memphis Center
Thu 07:03:32 PM 36.3297 -94.7072 282° West 394 453 36,000  Level Memphis Center
Thu 07:04:34 PM 36.3531 -94.8394 282° West 394 453 36,000  Level Memphis Center
Thu 07:05:08 PM 36.3675 -94.9200 283° West 393 452 36,000  Level Kansas City Center
Thu 07:06:09 PM 36.3900 -95.0514 282° West 393 452 36,000  Level Kansas City Center
Thu 07:07:13 PM 36.4147 -95.1986 282° West 390 449 36,000  Level Kansas City Center
Thu 07:08:13 PM 36.4378 -95.3317 282° West 391 450 36,000  Level Kansas City Center
Thu 07:09:15 PM 36.4592 -95.4644 281° West 393 452 36,000  Level Kansas City Center
Thu 07:10:18 PM 36.4814 -95.5967 282° West 393 452 36,000  Level Kansas City Center
Thu 07:11:18 PM 36.5031 -95.7283 282° West 393 452 36,000  Level Kansas City Center
Thu 07:12:22 PM 36.5256 -95.8650 282° West 393 452 36,000  Level Kansas City Center
Thu 07:13:25 PM 36.5519 -96.0225 282° West 391 450 36,000  Level Kansas City Center
Thu 07:14:27 PM 36.5736 -96.1550 282° West 391 450 36,000  Level Kansas City Center
Thu 07:15:27 PM 36.5944 -96.2867 281° West 390 449 36,000  Level Kansas City Center
Thu 07:16:32 PM 36.6153 -96.4186 281° West 390 449 36,000  Level Kansas City Center
Thu 07:17:32 PM 36.6358 -96.5500 281° West 389 448 36,000  Level Kansas City Center
Thu 07:18:36 PM 36.6558 -96.6808 281° West 388 447 36,000  Level Kansas City Center
Thu 07:19:37 PM 36.6803 -96.8364 281° West 385 443 36,000  Level Kansas City Center
Thu 07:20:38 PM 36.7000 -96.9656 281° West 381 438 36,000 144 Level Kansas City Center
Thu 07:21:42 PM 36.7183 -97.0867 281° West 381 438 36,300 624 Climbing Kansas City Center
Thu 07:22:43 PM 36.7375 -97.2111 281° West 373 429 37,300 836 Climbing Kansas City Center
Thu 07:23:44 PM 36.7608 -97.3603 281° West 372 428 38,000 339 Climbing Kansas City Center
Thu 07:24:47 PM 36.7769 -97.4719 280° West 371 427 38,000  Level Kansas City Center
Thu 07:25:51 PM 36.7953 -97.5994 280° West 371 427 38,000  Level Kansas City Center
Thu 07:26:52 PM 36.8172 -97.7508 280° West 372 428 38,000  Level Kansas City Center
Thu 07:27:53 PM 36.8361 -97.8775 281° West 372 428 38,000  Level Kansas City Center
Thu 07:28:57 PM 36.8528 -98.0025 279° West 370 426 38,000  Level Kansas City Center
Thu 07:29:58 PM 36.8708 -98.1292 280° West 370 426 38,000  Level Kansas City Center
Thu 07:30:59 PM 36.8894 -98.2547 281° West 370 426 38,000  Level Kansas City Center
Thu 07:32:03 PM 36.9058 -98.3811 279° West 370 426 38,000  Level Kansas City Center
Thu 07:33:03 PM 36.9275 -98.5269 281° West 370 426 38,000  Level Kansas City Center
Thu 07:34:06 PM 36.9456 -98.6550 280° West 372 428 38,000  Level Kansas City Center
Thu 07:35:07 PM 36.9633 -98.7825 280° West 372 428 38,000  Level Kansas City Center
Thu 07:36:11 PM 36.9842 -98.9361 280° West 372 428 38,000  Level Kansas City Center
Thu 07:37:12 PM 37.0011 -99.0631 280° West 372 428 38,000  Level Kansas City Center
Thu 07:38:16 PM 37.0181 -99.1917 279° West 372 428 38,000  Level Kansas City Center
Thu 07:39:16 PM 37.0344 -99.3175 279° West 372 428 38,000  Level Kansas City Center
Thu 07:40:20 PM 37.0514 -99.4456 279° West 372 428 38,000  Level Kansas City Center
Thu 07:41:21 PM 37.0706 -99.5858 280° West 369 425 38,000  Level Kansas City Center
Thu 07:42:22 PM 37.0847 -99.7075 278° West 369 425 38,000  Level Kansas City Center
Thu 07:43:25 PM 37.1039 -99.8483 280° West 369 425 38,000  Level Kansas City Center
Thu 07:44:27 PM 37.1194 -99.9697 279° West 369 425 38,000  Level Kansas City Center
Thu 07:45:30 PM 37.1369 -100.1117 279° West 369 425 38,000  Level Kansas City Center
Thu 07:46:32 PM 37.1522 -100.2342 279° West 369 425 38,000  Level Kansas City Center
Thu 07:47:35 PM 37.1703 -100.3772 279° West 369 425 38,000  Level Kansas City Center
Thu 07:48:36 PM 37.1850 -100.4983 279° West 369 425 38,000  Level Kansas City Center
Thu 07:49:37 PM 37.2028 -100.6431 279° West 369 425 38,000  Level Kansas City Center
Thu 07:50:41 PM 37.2169 -100.7656 278° West 370 426 38,000  Level Kansas City Center
Thu 07:51:42 PM 37.2322 -100.8894 279° West 370 426 38,000  Level Kansas City Center
Thu 07:52:43 PM 37.2489 -101.0325 278° West 370 426 38,000  Level Kansas City Center
Thu 07:53:47 PM 37.2628 -101.1553 278° West 370 426 38,000  Level Kansas City Center
Thu 07:54:48 PM 37.2789 -101.2975 278° West 370 426 38,000  Level Kansas City Center
Thu 07:55:51 PM 37.2931 -101.4189 278° West 369 425 38,000  Level Kansas City Center
Thu 07:56:52 PM 37.3086 -101.5614 278° West 369 425 38,000  Level Kansas City Center
Thu 07:57:56 PM 37.3231 -101.6850 278° West 370 426 38,000  Level Kansas City Center
Thu 07:58:57 PM 37.3383 -101.8294 278° West 371 427 38,000  Level Kansas City Center
Thu 08:00:55 PM 37.3664 -102.0825 278° West 379 436 38,000  Level Denver Center
Thu 08:01:39 PM 37.3761 -102.1661 278° West 380 437 38,000  Level Kansas City Center
Thu 08:02:42 PM 37.3917 -102.3144 278° West 380 437 38,000  Level Kansas City Center
Thu 08:03:43 PM 37.4050 -102.4400 278° West 380 437 38,000  Level Kansas City Center
Thu 08:04:44 PM 37.4203 -102.5878 277° West 380 437 38,000  Level Kansas City Center
Thu 08:05:48 PM 37.4339 -102.7139 278° West 380 437 38,000  Level Kansas City Center
Thu 08:06:59 PM 37.4506 -102.8933 277° West 381 438 38,000  Level Albuquerque Center
Thu 08:08:01 PM 37.4628 -103.0253 277° West 381 438 38,000  Level Albuquerque Center
Thu 08:09:03 PM 37.4764 -103.1575 277° West 381 438 38,000  Level Albuquerque Center
Thu 08:10:04 PM 37.4906 -103.2906 278° West 382 440 38,000  Level Albuquerque Center
Thu 08:11:06 PM 37.5031 -103.4258 277° West 387 445 38,000  Level Albuquerque Center
Thu 08:12:07 PM 37.5161 -103.5586 277° West 387 445 38,000  Level Albuquerque Center
Thu 08:13:09 PM 37.5289 -103.6917 277° West 387 445 38,000  Level Albuquerque Center
Thu 08:14:11 PM 37.5425 -103.8389 277° West 387 445 38,000  Level Albuquerque Center
Thu 08:15:12 PM 37.5547 -103.9761 276° West 387 445 38,000  Level Albuquerque Center
Thu 08:16:28 PM 37.5706 -104.1375 277° West 391 450 38,000  Level Denver Center
Thu 08:17:30 PM 37.5839 -104.2933 276° West 380 437 38,000  Level Denver Center
Thu 08:18:32 PM 37.5961 -104.4261 277° West 380 437 38,000  Level Denver Center
Thu 08:19:34 PM 37.6078 -104.5592 276° West 381 438 38,000  Level Denver Center
Thu 08:20:36 PM 37.6194 -104.6922 276° West 381 438 38,000  Level Denver Center
Thu 08:21:38 PM 37.6303 -104.8258 276° West 385 443 38,000  Level Denver Center
Thu 08:22:41 PM 37.6431 -104.9889 276° West 386 444 38,000  Level Denver Center
Thu 08:23:43 PM 37.6544 -105.1244 276° West 387 445 38,000  Level Denver Center
Thu 08:24:45 PM 37.6667 -105.2603 277° West 388 447 38,000  Level Denver Center
Thu 08:25:47 PM 37.6772 -105.3964 276° West 388 447 38,000  Level Denver Center
Thu 08:26:49 PM 37.6875 -105.5328 275° West 389 448 38,000  Level Denver Center
Thu 08:27:51 PM 37.6986 -105.6692 276° West 391 450 38,000  Level Denver Center
Thu 08:28:53 PM 37.7094 -105.8311 275° West 390 449 38,000  Level Denver Center
Thu 08:29:56 PM 37.7197 -105.9675 275° West 390 449 38,000  Level Denver Center
Thu 08:30:58 PM 37.7303 -106.1044 276° West 392 451 38,000  Level Denver Center
Thu 08:32:00 PM 37.7392 -106.2411 275° West 392 451 38,000  Level Denver Center
Thu 08:33:02 PM 37.7517 -106.3978 276° West 396 456 38,000  Level Denver Center
Thu 08:34:04 PM 37.7608 -106.5317 275° West 398 458 38,000  Level Denver Center
Thu 08:35:06 PM 37.7711 -106.6892 275° West 401 461 38,000  Level Denver Center
Thu 08:36:08 PM 37.7800 -106.8228 275° West 401 461 38,000  Level Denver Center
Thu 08:37:11 PM 37.7908 -106.9792 275° West 400 460 38,000  Level Denver Center
Thu 08:38:13 PM 37.8000 -107.1122 275° West 400 460 38,000  Level Denver Center
Thu 08:39:15 PM 37.8092 -107.2672 274° West 400 460 38,000  Level Denver Center
Thu 08:40:17 PM 37.8183 -107.4014 275° West 399 459 38,000  Level Denver Center
Thu 08:42:21 PM 37.8347 -107.6917 274° West 400 460 38,000  Level Denver Center
Thu 08:43:24 PM 37.8453 -107.8472 275° West 398 458 38,000  Level Denver Center
Thu 08:44:26 PM 37.8522 -107.9817 274° West 399 459 38,000  Level Denver Center
Thu 08:46:30 PM 37.8683 -108.2706 274° West 397 457 38,000  Level Denver Center
Thu 08:47:32 PM 37.8772 -108.4286 274° West 401 461 38,000  Level Denver Center
Thu 08:48:34 PM 37.8842 -108.5608 274° West 401 461 38,000  Level Denver Center
Thu 08:49:37 PM 37.8919 -108.7158 274° West 399 459 38,000  Level Denver Center
Thu 08:50:39 PM 37.8983 -108.8519 273° West 399 459 38,000  Level Denver Center
Thu 08:51:41 PM 37.9069 -109.0069 274° West 399 459 38,000  Level Denver Center
Thu 08:52:43 PM 37.9131 -109.1419 273° West 400 460 38,000  Level Denver Center
Thu 08:53:45 PM 37.9208 -109.2997 274° West 402 463 38,000  Level Denver Center
Thu 08:54:47 PM 37.9256 -109.4339 273° West 402 463 38,000  Level Denver Center
Thu 08:55:49 PM 37.9328 -109.5903 273° West 401 461 38,000  Level Denver Center
Thu 08:56:52 PM 37.9392 -109.7258 273° West 402 463 38,000  Level Denver Center
Thu 08:57:54 PM 37.9450 -109.8817 273° West 399 459 38,000  Level Denver Center
Thu 08:58:56 PM 37.9508 -110.0158 273° West 399 459 38,000  Level Denver Center
Thu 08:59:58 PM 37.9547 -110.1486 272° West 397 457 38,000  Level Denver Center
Thu 09:01:00 PM 37.9333 -110.2997 260° West 392 451 38,000  Level Denver Center
Thu 09:02:02 PM 37.9039 -110.4269 254° West 392 451 38,000  Level Denver Center
Thu 09:03:04 PM 37.8742 -110.5642 255° West 393 452 38,000  Level Denver Center
Thu 09:04:06 PM 37.8456 -110.6981 255° West 393 452 38,000  Level Denver Center
Thu 09:05:09 PM 37.8097 -110.8581 254° West 394 453 38,000  Level Denver Center
Thu 09:06:11 PM 37.7806 -110.9908 255° West 394 453 38,000  Level Denver Center
Thu 09:07:13 PM 37.7494 -111.1244 254° West 394 453 38,000  Level Denver Center
Thu 09:08:23 PM 37.7131 -111.2856 254° West 395 455 38,000  Level Salt Lake Center
Thu 09:09:25 PM 37.6842 -111.4222 255° West 397 457 38,000  Level Salt Lake Center
Thu 09:10:27 PM 37.6767 -111.5614 266° West 406 467 38,000  Level Salt Lake Center
Thu 09:11:29 PM 37.7083 -111.7025 286° West 417 480 38,000  Level Salt Lake Center
Thu 09:12:30 PM 37.7536 -111.8375 293° West 417 480 38,000  Level Salt Lake Center
Thu 09:13:32 PM 37.8133 -111.9997 295° West 421 484 38,000  Level Salt Lake Center
Thu 09:14:34 PM 37.8639 -112.1325 296° West 423 487 38,000  Level Salt Lake Center
Thu 09:15:36 PM 37.9142 -112.2647 296° West 423 487 38,000  Level Salt Lake Center
Thu 09:16:37 PM 37.9644 -112.3961 296° West 419 482 38,000  Level Salt Lake Center
Thu 09:17:39 PM 38.0156 -112.5300 296° West 420 483 38,000  Level Salt Lake Center
Thu 09:18:41 PM 38.0631 -112.6664 294° West 423 487 38,000  Level Salt Lake Center
Thu 09:19:42 PM 38.1208 -112.8289 294° West 424 488 38,000  Level Salt Lake Center
Thu 09:20:44 PM 38.1706 -112.9644 295° West 424 488 38,000  Level Salt Lake Center
Thu 09:21:46 PM 38.2217 -113.0986 296° West 425 489 38,000  Level Salt Lake Center
Thu 09:22:47 PM 38.2714 -113.2339 295° West 424 488 38,000  Level Salt Lake Center
Thu 09:23:50 PM 38.3136 -113.3731 291° West 429 494 38,000  Level Salt Lake Center
Thu 09:24:51 PM 38.3075 -113.5122 267° West 404 465 38,000  Level Salt Lake Center
Thu 09:25:52 PM 38.2986 -113.6808 266° West 403 464 38,000  Level Salt Lake Center
Thu 09:26:54 PM 38.2911 -113.8217 266° West 402 463 38,000  Level Salt Lake Center
Thu 09:27:55 PM 38.2831 -113.9617 266° West 401 461 38,000  Level Salt Lake Center
Thu 09:28:57 PM 38.2753 -114.1008 266° West 401 461 38,000  Level Salt Lake Center
Thu 09:29:59 PM 38.2669 -114.2400 266° West 398 458 38,000  Level Salt Lake Center
Thu 09:31:00 PM 38.2575 -114.3800 265° West 398 458 38,000  Level Salt Lake Center
Thu 09:32:02 PM 38.2497 -114.5225 266° West 400 460 38,000  Level Salt Lake Center
Thu 09:33:04 PM 38.2392 -114.6925 266° West 402 463 38,000  Level Salt Lake Center
Thu 09:34:05 PM 38.2297 -114.8361 265° West 404 465 38,000  Level Salt Lake Center
Thu 09:35:07 PM 38.2208 -114.9781 265° West 405 466 38,000  Level Salt Lake Center
Thu 09:36:09 PM 38.2119 -115.1186 265° West 401 461 38,000  Level Salt Lake Center
Thu 09:37:10 PM 38.2014 -115.2581 265° West 399 459 38,000  Level Salt Lake Center
Thu 09:38:12 PM 38.1919 -115.4042 265° West 400 460 38,000  Level Salt Lake Center
Thu 09:39:13 PM 38.1814 -115.5461 265° West 405 466 38,000  Level Salt Lake Center
Thu 09:40:15 PM 38.1711 -115.6869 265° West 402 463 38,000  Level Salt Lake Center
Thu 09:41:17 PM 38.1619 -115.8272 265° West 399 459 38,000  Level Salt Lake Center
Thu 09:42:18 PM 38.1483 -115.9953 264° West 399 459 38,000  Level Salt Lake Center
Thu 09:43:20 PM 38.1389 -116.1358 265° West 400 460 38,000  Level Salt Lake Center
Thu 09:44:22 PM 38.1278 -116.2767 264° West 400 460 38,000  Level Salt Lake Center
Thu 09:45:21 PM 38.1167 -116.4169 264° West 400 460 38,000  Level Oakland Center
Thu 09:46:22 PM 38.1053 -116.5564 264° West 400 460 38,000  Level Oakland Center
Thu 09:47:24 PM 38.0944 -116.6953 264° West 396 456 38,000  Level Oakland Center
Thu 09:48:28 PM 38.0836 -116.8342 264° West 397 457 38,000  Level Salt Lake Center
Thu 09:49:30 PM 38.0719 -116.9742 264° West 397 457 38,000  Level Salt Lake Center
Thu 09:50:28 PM 38.0586 -117.1167 263° West 397 457 38,000  Level Oakland Center
Thu 09:51:29 PM 38.0433 -117.2650 263° West 408 470 38,000  Level Oakland Center
Thu 09:52:31 PM 38.0306 -117.4089 264° West 407 468 38,000  Level Oakland Center
Thu 09:53:32 PM 38.0172 -117.5506 263° West 405 466 38,000  Level Oakland Center
Thu 09:54:33 PM 38.0028 -117.6922 263° West 405 466 38,000  Level Oakland Center
Thu 09:55:35 PM 37.9886 -117.8339 263° West 405 466 38,000  Level Oakland Center
Thu 09:56:36 PM 37.9706 -118.0047 262° West 406 467 38,000  Level Oakland Center
Thu 09:57:37 PM 37.9564 -118.1481 263° West 407 468 38,000 -443 Level Oakland Center
Thu 09:58:38 PM 37.9403 -118.2919 262° West 408 470 37,100 -878 Descending Oakland Center
Thu 09:59:40 PM 37.9236 -118.4392 262° West 417 480 36,200 -927 Descending Oakland Center
Thu 10:00:41 PM 37.9081 -118.5889 263° West 424 488 35,200 -984 Descending Oakland Center
Thu 10:01:42 PM 37.8900 -118.7408 261° West 431 496 34,200 -984 Descending Oakland Center
Thu 10:02:43 PM 37.8783 -118.8947 265° West 434 499 33,200 -927 Descending Oakland Center
Thu 10:03:45 PM 37.8583 -119.0475 261° West 438 504 32,300 -585 Descending Oakland Center
Thu 10:04:46 PM 37.8400 -119.2036 262° West 442 509 32,000 -148 Descending Oakland Center
Thu 10:05:47 PM 37.8236 -119.3533 262° West 440 506 32,000  Level Oakland Center
Thu 10:06:48 PM 37.8050 -119.5019 261° West 431 496 32,000  Level Oakland Center
Thu 10:07:50 PM 37.7889 -119.6506 262° West 429 494 32,000  Level Oakland Center
Thu 10:08:51 PM 37.7664 -119.8300 261° West 429 494 32,000  Level Oakland Center
Thu 10:09:52 PM 37.7500 -119.9797 262° West 429 494 32,000 -344 Level Oakland Center
Thu 10:10:53 PM 37.7303 -120.1286 261° West 430 495 31,300 -829 Descending Oakland Center
Thu 10:11:55 PM 37.7125 -120.2803 262° West 431 496 30,300 -976 Descending Oakland Center
Thu 10:12:56 PM 37.6928 -120.4336 261° West 435 501 29,300 -1,328 Descending Oakland Center
Thu 10:13:57 PM 37.6742 -120.5850 261° West 438 504 27,600 -2,016 Descending Oakland Center
Thu 10:14:58 PM 37.6564 -120.7264 261° West 419 482 25,200 -2,293 Descending Oakland Center
Thu 10:16:00 PM 37.6386 -120.8631 261° West 402 463 22,900 -2,389 Descending Oakland Center
Thu 10:16:46 PM 37.6167 -120.9833 257° West 391 450 20,900 -2,321 Descending Northern Cal TRACON
Thu 10:17:46 PM 37.6167 -121.1000 270° West 380 437 18,800 -2,000 Descending Northern Cal TRACON
Thu 10:18:46 PM 37.5833 -121.2333 253° West 384 442 16,900 -1,368 Descending Northern Cal TRACON
Thu 10:19:40 PM 37.5167 -121.2833 211° Southwest 334 384 16,200 -1,200 Descending Northern Cal TRACON
Thu 10:20:46 PM 37.4333 -121.3500 212° Southwest 320 368 14,500 -1,571 Descending Northern Cal TRACON
Thu 10:21:46 PM 37.4667 -121.4333 297° West 316 364 12,900 -1,550 Descending Northern Cal TRACON
Thu 10:22:46 PM 37.5000 -121.5333 293° West 300 345 11,400 -1,000 Descending Northern Cal TRACON
Thu 10:23:46 PM 37.5167 -121.6333 282° West 273 314 10,900 -895 Descending Northern Cal TRACON
Thu 10:24:40 PM 37.5000 -121.7000 253° West 258 297 9,700 -1,263 Descending Northern Cal TRACON
Thu 10:25:40 PM 37.5000 -121.8000 270° West 259 298 8,500 -900 Descending Northern Cal TRACON
Thu 10:26:40 PM 37.4833 -121.8833 256° West 239 275 7,900 -1,050 Descending Northern Cal TRACON
Thu 10:27:40 PM 37.5000 -121.9667 284° West 244 281 6,400 -1,400 Descending Northern Cal TRACON
Thu 10:28:40 PM 37.5167 -122.0500 284° West 240 276 5,100 -1,050 Descending Northern Cal TRACON
Thu 10:29:40 PM 37.5333 -122.1167 288° West 192 221 4,300 -804 Descending Northern Cal TRACON
Thu 10:30:17 PM 37.5453 -122.1442 299° West 210 242 3,800 -1,212 Descending Oakland Center
Thu 10:31:19 PM 37.5647 -122.2097 291° West 180 207 2,300 -1,171 Descending Oakland Center
Thu 10:32:20 PM 37.5789 -122.2600 290° West 166 191 1,400 -689 Descending Oakland Center
Thu 10:33:21 PM 37.5917 -122.3081 289° West 155 178 900 -590 Descending Oakland Center
Thu 10:34:22 PM 37.6106 -122.3519 299° West 147 169 200 -689 Descending Oakland Center
Thu 10:36:00 PM 37.6167 -122.3667 322° Northwest  Level FlightAware Approximate
Thu 10:43:00 PM 37.6188 -122.3754 322° Northwest  Level Estimated

Login

Don't have an account? Register now (free) for customized features, flight alerts, and more!